createdAt,value
2023-02-07T00:03:55.142Z,-0.51
2023-02-07T00:08:56.350Z,-0.54
2023-02-07T00:13:57.564Z,-0.48
2023-02-07T00:19:00.313Z,-0.44
2023-02-07T00:24:01.749Z,-0.47
2023-02-07T00:29:02.994Z,-0.39
2023-02-07T00:34:04.250Z,-0.65
2023-02-07T00:39:05.463Z,-0.80
2023-02-07T00:44:06.726Z,-0.99
2023-02-07T00:49:07.942Z,-1.05
2023-02-07T00:54:09.158Z,-1.16
2023-02-07T00:59:10.346Z,-1.25
2023-02-07T01:04:11.522Z,-1.25
2023-02-07T01:09:14.229Z,-1.25
2023-02-07T01:14:15.460Z,-1.25
2023-02-07T01:19:16.676Z,-1.29
2023-02-07T01:24:17.933Z,-1.38
2023-02-07T01:29:19.173Z,-1.43
2023-02-07T01:34:20.451Z,-1.47
2023-02-07T01:39:21.679Z,-1.49
2023-02-07T01:44:22.916Z,-1.47
2023-02-07T01:49:24.117Z,-1.41
2023-02-07T01:54:25.284Z,-1.30
2023-02-07T01:59:26.482Z,-1.43
2023-02-07T02:04:27.661Z,-1.48
2023-02-07T02:09:29.834Z,-1.51
2023-02-07T02:14:31.127Z,-1.66
2023-02-07T02:19:32.395Z,-1.78
2023-02-07T02:24:33.727Z,-1.82
2023-02-07T02:29:34.911Z,-1.78
2023-02-07T02:34:36.367Z,-1.81
2023-02-07T02:39:37.626Z,-1.93
2023-02-07T02:44:38.811Z,-1.92
2023-02-07T02:49:40.048Z,-1.80
2023-02-07T02:54:41.218Z,-1.86
2023-02-07T02:59:42.432Z,-1.88
2023-02-07T03:04:43.646Z,-1.93
2023-02-07T03:09:44.971Z,-1.86
2023-02-07T03:14:46.215Z,-1.94
2023-02-07T03:19:47.624Z,-2.00
2023-02-07T03:24:48.838Z,-1.97
2023-02-07T03:29:50.033Z,-2.05
2023-02-07T03:34:51.277Z,-1.96
2023-02-07T03:39:52.525Z,-1.95
2023-02-07T03:44:53.745Z,-1.96
2023-02-07T03:49:54.944Z,-1.96
2023-02-07T03:54:56.201Z,-1.97
2023-02-07T03:59:57.438Z,-1.97
2023-02-07T04:04:58.647Z,-1.95
2023-02-07T04:09:59.822Z,-1.87
2023-02-07T04:15:01.010Z,-1.93
2023-02-07T04:20:02.232Z,-1.95
2023-02-07T04:25:03.460Z,-1.88
2023-02-07T04:30:04.651Z,-1.83
2023-02-07T04:35:05.876Z,-1.78
2023-02-07T04:40:07.137Z,-1.86
2023-02-07T04:45:08.369Z,-1.82
2023-02-07T04:50:09.668Z,-1.76
2023-02-07T04:55:10.900Z,-1.65
2023-02-07T05:00:12.085Z,-1.60
2023-02-07T05:05:13.321Z,-1.52
2023-02-07T05:10:14.522Z,-1.49
2023-02-07T05:15:15.815Z,-1.51
2023-02-07T05:20:16.990Z,-1.58
2023-02-07T05:25:18.218Z,-1.62
2023-02-07T05:30:19.433Z,-1.64
2023-02-07T05:35:20.597Z,-1.66
2023-02-07T05:40:23.768Z,-1.64
2023-02-07T05:45:25.531Z,-1.58
2023-02-07T05:50:26.746Z,-1.58
2023-02-07T05:55:27.949Z,-1.52
2023-02-07T06:00:29.158Z,-1.51
2023-02-07T06:05:31.935Z,-1.44
2023-02-07T06:10:33.341Z,-1.45
2023-02-07T06:15:34.625Z,-1.50
2023-02-07T06:20:35.871Z,-1.57
2023-02-07T06:25:37.434Z,-1.68
2023-02-07T06:30:38.832Z,-1.70
2023-02-07T06:35:46.976Z,-1.73
2023-02-07T06:40:48.167Z,-1.66
2023-02-07T06:45:49.407Z,-1.58
2023-02-07T06:50:51.690Z,-1.58
2023-02-07T06:55:52.930Z,-1.71
2023-02-07T07:00:54.103Z,-1.85
2023-02-07T07:05:55.369Z,-2.03
2023-02-07T07:10:56.574Z,-2.00
2023-02-07T07:15:57.783Z,-1.94
2023-02-07T07:20:58.970Z,-1.94
2023-02-07T07:26:00.256Z,-1.95
2023-02-07T07:31:01.561Z,-1.97
2023-02-07T07:36:02.871Z,-1.91
2023-02-07T07:41:04.292Z,-1.82
2023-02-07T07:46:07.673Z,-1.72
2023-02-07T07:51:08.865Z,-1.60
2023-02-07T07:56:10.065Z,-1.55
2023-02-07T08:01:11.352Z,-1.37
2023-02-07T08:06:12.575Z,-1.13
2023-02-07T08:11:13.761Z,-0.98
2023-02-07T08:16:14.982Z,-0.91
2023-02-07T08:21:16.230Z,-0.95
2023-02-07T08:26:17.589Z,-0.96
2023-02-07T08:31:18.879Z,-0.97
2023-02-07T08:36:20.191Z,-0.84
2023-02-07T08:41:21.449Z,-0.70
2023-02-07T08:46:22.716Z,-0.60
2023-02-07T08:51:23.900Z,-0.52
2023-02-07T08:56:25.090Z,-0.42
2023-02-07T09:01:27.073Z,-0.29
2023-02-07T09:06:28.493Z,-0.12
2023-02-07T09:11:29.809Z,0.12
2023-02-07T09:16:31.114Z,0.55
2023-02-07T09:21:33.369Z,1.11
2023-02-07T09:26:35.344Z,1.65
2023-02-07T09:31:36.735Z,2.13
2023-02-07T09:36:38.212Z,2.76
2023-02-07T09:41:39.426Z,3.25
2023-02-07T09:46:40.669Z,3.45
2023-02-07T09:51:41.926Z,3.41
2023-02-07T09:56:43.215Z,3.47
2023-02-07T10:01:44.422Z,3.57
2023-02-07T10:06:45.898Z,4.02
2023-02-07T10:11:47.166Z,4.63
2023-02-07T10:16:48.460Z,4.89
2023-02-07T10:21:49.655Z,5.52
2023-02-07T10:26:50.865Z,6.11
2023-02-07T10:31:52.204Z,6.68
2023-02-07T10:36:53.660Z,7.73
2023-02-07T10:41:57.444Z,8.22
2023-02-07T10:46:58.749Z,8.20
2023-02-07T10:52:00.924Z,8.08
2023-02-07T10:57:02.924Z,7.74
2023-02-07T11:02:04.419Z,7.63
2023-02-07T11:07:05.635Z,7.76
2023-02-07T11:12:06.883Z,7.50
2023-02-07T11:17:08.154Z,7.27
2023-02-07T11:22:09.505Z,7.12
2023-02-07T11:27:10.719Z,6.18
2023-02-07T11:32:11.973Z,6.86
2023-02-07T11:37:13.160Z,7.30
2023-02-07T11:42:14.771Z,7.16
2023-02-07T11:47:16.065Z,7.25
2023-02-07T11:52:17.232Z,6.91
2023-02-07T11:57:18.447Z,6.35
2023-02-07T12:02:19.725Z,6.20
2023-02-07T12:07:21.006Z,6.58
2023-02-07T12:12:22.246Z,7.11
2023-02-07T12:17:23.467Z,7.21
2023-02-07T12:22:24.716Z,7.12
2023-02-07T12:27:26.712Z,6.81
2023-02-07T12:32:28.088Z,6.75
2023-02-07T12:37:29.362Z,7.14
2023-02-07T12:42:30.562Z,7.03
2023-02-07T12:47:31.748Z,7.17
2023-02-07T12:52:34.207Z,7.37
2023-02-07T12:57:37.144Z,7.67
2023-02-07T13:02:39.070Z,7.83
2023-02-07T13:07:40.342Z,7.78
2023-02-07T13:12:41.654Z,8.18
2023-02-07T13:17:42.857Z,8.33
2023-02-07T13:22:44.477Z,8.41
2023-02-07T13:27:45.692Z,8.48
2023-02-07T13:32:46.940Z,8.48
2023-02-07T13:37:48.161Z,8.47
2023-02-07T13:42:49.856Z,8.36
2023-02-07T13:47:51.082Z,8.30
2023-02-07T13:52:52.301Z,8.28
2023-02-07T13:58:12.395Z,7.80
2023-02-07T14:03:13.650Z,7.61
2023-02-07T14:08:14.886Z,7.91
2023-02-07T14:13:16.153Z,8.13
2023-02-07T14:18:17.312Z,8.08
2023-02-07T14:23:18.563Z,8.04
2023-02-07T14:28:19.851Z,8.02
2023-02-07T14:33:21.122Z,7.83
2023-02-07T14:38:22.402Z,7.43
2023-02-07T14:43:23.652Z,7.18
2023-02-07T14:48:24.877Z,7.09
2023-02-07T14:53:26.358Z,7.09
2023-02-07T14:58:27.584Z,6.87
2023-02-07T15:03:28.843Z,6.44
2023-02-07T15:08:30.359Z,6.42
2023-02-07T15:13:31.554Z,6.40
2023-02-07T15:18:32.744Z,6.20
2023-02-07T15:23:33.922Z,6.12
2023-02-07T15:28:35.206Z,6.14
2023-02-07T15:33:36.883Z,6.09
2023-02-07T15:38:38.282Z,5.95
2023-02-07T15:43:39.497Z,5.92
2023-02-07T15:48:40.700Z,5.80
2023-02-07T15:53:41.897Z,5.67
2023-02-07T15:58:43.115Z,5.44
2023-02-07T16:03:44.386Z,5.27
2023-02-07T16:08:46.274Z,5.11
2023-02-07T16:13:47.574Z,4.99
2023-02-07T16:18:48.852Z,4.74
2023-02-07T16:23:51.203Z,4.46
2023-02-07T16:28:52.417Z,4.27
2023-02-07T16:33:53.642Z,4.12
2023-02-07T16:38:54.819Z,4.00
2023-02-07T16:43:56.019Z,3.87
2023-02-07T16:48:57.232Z,3.75
2023-02-07T16:53:58.437Z,3.63
2023-02-07T16:58:59.677Z,3.53
2023-02-07T17:04:01.030Z,3.35
2023-02-07T17:09:02.228Z,3.22
2023-02-07T17:14:03.461Z,3.00
2023-02-07T17:19:04.623Z,2.99
2023-02-07T17:24:05.789Z,2.95
2023-02-07T17:29:07.012Z,2.82
2023-02-07T17:34:08.224Z,2.82
2023-02-07T17:39:09.412Z,2.73
2023-02-07T17:44:10.649Z,2.36
2023-02-07T17:49:11.890Z,2.27
2023-02-07T17:54:13.254Z,2.25
2023-02-07T17:59:15.534Z,2.28
2023-02-07T18:04:16.711Z,2.16
2023-02-07T18:09:18.290Z,2.02
2023-02-07T18:14:19.546Z,2.02
2023-02-07T18:19:20.719Z,1.99
2023-02-07T18:24:21.993Z,1.89
2023-02-07T18:29:23.264Z,1.59
2023-02-07T18:34:24.583Z,1.17
2023-02-07T18:39:25.783Z,0.87
2023-02-07T18:44:27.011Z,0.73
2023-02-07T18:49:28.211Z,0.68
2023-02-07T18:54:29.562Z,0.55
2023-02-07T18:59:31.097Z,0.51
2023-02-07T19:04:32.330Z,0.47
2023-02-07T19:09:33.570Z,0.47
2023-02-07T19:14:35.586Z,0.40
2023-02-07T19:19:36.870Z,0.42
2023-02-07T19:24:38.121Z,0.69
2023-02-07T19:29:39.307Z,0.78
2023-02-07T19:34:40.521Z,0.90
2023-02-07T19:39:43.319Z,0.71
2023-02-07T19:44:44.537Z,1.16
2023-02-07T19:49:51.586Z,1.23
2023-02-07T19:54:53.417Z,1.01
2023-02-07T19:59:55.770Z,0.79
2023-02-07T20:04:56.949Z,0.53
2023-02-07T20:09:58.162Z,0.33
2023-02-07T20:14:59.375Z,0.15
2023-02-07T20:20:01.414Z,0.03
2023-02-07T20:25:02.608Z,-0.02
2023-02-07T20:30:03.813Z,0.03
2023-02-07T20:35:05.042Z,0.06
2023-02-07T20:40:06.212Z,0.05
2023-02-07T20:45:07.753Z,0.00
2023-02-07T20:50:09.123Z,-0.01
2023-02-07T20:55:10.322Z,-0.04
2023-02-07T21:00:11.525Z,-0.11
2023-02-07T21:05:12.777Z,-0.13
2023-02-07T21:10:13.934Z,-0.18
2023-02-07T21:15:15.164Z,-0.32
2023-02-07T21:20:16.386Z,-0.43
2023-02-07T21:25:17.635Z,-0.46
2023-02-07T21:30:18.843Z,-0.46
2023-02-07T21:35:20.785Z,-0.33
2023-02-07T21:40:21.963Z,-0.35
2023-02-07T21:45:23.232Z,-0.38
2023-02-07T21:50:24.439Z,-0.39
2023-02-07T21:55:25.647Z,-0.43
2023-02-07T22:00:27.099Z,-0.43
2023-02-07T22:05:28.291Z,-0.46
2023-02-07T22:10:29.500Z,-0.54
2023-02-07T22:15:32.160Z,-0.69
2023-02-07T22:20:35.147Z,-0.75
2023-02-07T22:25:36.335Z,-0.78
2023-02-07T22:30:37.562Z,-0.85
2023-02-07T22:35:38.788Z,-0.94
2023-02-07T22:40:40.277Z,-1.04
2023-02-07T22:45:46.726Z,-1.07
2023-02-07T22:50:47.994Z,-1.12
2023-02-07T22:55:49.365Z,-1.17
2023-02-07T23:00:50.592Z,-1.06
2023-02-07T23:05:51.789Z,-0.97
2023-02-07T23:10:52.977Z,-0.94
2023-02-07T23:15:54.313Z,-0.99
2023-02-07T23:20:55.539Z,-0.96
2023-02-07T23:25:57.818Z,-0.90
2023-02-07T23:30:59.204Z,-0.90
2023-02-07T23:36:00.504Z,-0.90
2023-02-07T23:41:01.945Z,-0.94
2023-02-07T23:46:03.240Z,-0.92
2023-02-07T23:51:04.662Z,-0.90
2023-02-07T23:56:05.891Z,-0.98
